Portada
METAR-TAF:

METAR-TAF

Aeroports :

Aeroport de Gran Canària

Gran Canària, Espanya

latitud: 27-56N, longitud: 015-23W, altitud: 23 m

Observació

L'informe es va fer fa 15 minuts, a les 19:30 UTC
Vent 2 kt amb direcció variable
Temperatura 17°C
Humitat 59%
Pressió 1018 hPa
Visibilitat 10 km o més
Núvols disperses a una alçada de 4500 ft
Cel ennuvolat a una alçada de 5000 ft

METAR: GCLP 221930Z VRB02KT 9999 SCT045 BKN050 17/09 Q1018 NOSIG

Hora: 19:45 (19:45 UTC)

Pronòstic

L'informe es va fer fa 1 hora i 10 minuts, a les 18:35 UTC
Pronòstic vàlid del 22 a les 18 UTC al 23 a les 15 UTC
Vent 8 kt del Sud/Sud-Est
Visibilitat 10 km o més
Núvols disperses a una alçada de 4000 ft
Probabilitat 30% :
Temporalment
l' 22 a les 18 UTC al 22 a les 20 UTC
pluja
Evolucionant progressivament
l' 22 a les 18 UTC al 22 a les 20 UTC
Vent 10 kt del Oest

TAF: GCLP 221835Z 2218/2315 15008KT 9999 SCT040 TX20/2314Z TN15/2306Z PROB30 TEMPO 2218/2220 RA BECMG 2218/2220 28010KT

Observacions i pronòstics meteorològics de més de 4000 aeroports (METAR i TAF).

Les estacions disponibles són els punts grocs i vermells al mapa.

Posi el ratolí al punt desitjat per veure el nom de l'estació.

Feu clic per veure les observacions i els pronòstics meteorològics.

Per canviar el mapa: feu clic els botons verds amb una creu de color negre per apropar; al botó verd amb un guió per allunyar la imatge; o en les fletxes verdes per a mapes adjacents.


METAR-TAF: